sensor_id;sensor_type;location;lat;lon;timestamp;temperature;humidity
66128;DHT22;52925;52.436;-1.952;2024-01-25T05:13:25;8.80;99.90
66128;DHT22;52925;52.436;-1.952;2024-01-25T05:14:46;8.80;99.90
66128;DHT22;52925;52.436;-1.952;2024-01-25T05:16:06;8.80;99.90
66128;DHT22;52925;52.436;-1.952;2024-01-25T05:17:27;8.80;99.90
66128;DHT22;52925;52.436;-1.952;2024-01-25T05:18:47;8.80;99.90
66128;DHT22;52925;52.436;-1.952;2024-01-25T05:20:08;8.80;99.90
66128;DHT22;52925;52.436;-1.952;2024-01-25T05:21:28;8.80;99.90
66128;DHT22;52925;52.436;-1.952;2024-01-25T05:22:49;8.80;99.90
66128;DHT22;52925;52.436;-1.952;2024-01-25T05:24:09;8.80;99.90
66128;DHT22;52925;52.436;-1.952;2024-01-25T05:25:30;8.80;99.90
66128;DHT22;52925;52.436;-1.952;2024-01-25T05:26:50;8.80;99.90
66128;DHT22;52925;52.436;-1.952;2024-01-25T05:28:10;8.80;99.90
66128;DHT22;52925;52.436;-1.952;2024-01-25T05:29:32;8.80;99.90
66128;DHT22;52925;52.436;-1.952;2024-01-25T05:30:52;8.80;99.90
66128;DHT22;52925;52.436;-1.952;2024-01-25T05:32:12;8.80;99.90
66128;DHT22;52925;52.436;-1.952;2024-01-25T05:33:33;8.90;99.90
66128;DHT22;52925;52.436;-1.952;2024-01-25T05:34:52;8.90;99.90
66128;DHT22;52925;52.436;-1.952;2024-01-25T05:36:13;8.80;99.90
66128;DHT22;52925;52.436;-1.952;2024-01-25T05:37:33;8.90;99.90
66128;DHT22;52925;52.436;-1.952;2024-01-25T05:38:54;9.00;99.90
66128;DHT22;52925;52.436;-1.952;2024-01-25T05:40:14;9.00;99.90
66128;DHT22;52925;52.436;-1.952;2024-01-25T05:41:34;9.10;99.90
66128;DHT22;52925;52.436;-1.952;2024-01-25T05:42:54;9.00;99.90
66128;DHT22;52925;52.436;-1.952;2024-01-25T05:44:15;9.10;99.90
66128;DHT22;52925;52.436;-1.952;2024-01-25T05:45:37;9.10;99.90
66128;DHT22;52925;52.436;-1.952;2024-01-25T05:46:57;9.10;99.90
66128;DHT22;52925;52.436;-1.952;2024-01-25T05:48:17;9.20;99.90
66128;DHT22;52925;52.436;-1.952;2024-01-25T05:49:38;9.20;99.90
66128;DHT22;52925;52.436;-1.952;2024-01-25T05:50:58;9.20;99.90
66128;DHT22;52925;52.436;-1.952;2024-01-25T05:52:18;9.20;99.90
66128;DHT22;52925;52.436;-1.952;2024-01-25T05:53:40;9.10;99.90
66128;DHT22;52925;52.436;-1.952;2024-01-25T05:55:01;9.10;99.90
66128;DHT22;52925;52.436;-1.952;2024-01-25T05:56:21;9.10;99.90
66128;DHT22;52925;52.436;-1.952;2024-01-25T05:57:43;9.10;99.90
66128;DHT22;52925;52.436;-1.952;2024-01-25T05:59:03;9.10;99.90
66128;DHT22;52925;52.436;-1.952;2024-01-25T06:00:24;9.10;99.90
66128;DHT22;52925;52.436;-1.952;2024-01-25T06:01:45;9.20;99.90
66128;DHT22;52925;52.436;-1.952;2024-01-25T06:03:06;9.20;99.90
66128;DHT22;52925;52.436;-1.952;2024-01-25T06:04:26;9.20;99.90
66128;DHT22;52925;52.436;-1.952;2024-01-25T06:05:46;9.30;99.90
66128;DHT22;52925;52.436;-1.952;2024-01-25T06:07:06;9.30;99.90
66128;DHT22;52925;52.436;-1.952;2024-01-25T06:08:27;9.30;99.90
66128;DHT22;52925;52.436;-1.952;2024-01-25T06:09:47;9.30;99.90
66128;DHT22;52925;52.436;-1.952;2024-01-25T06:11:07;9.30;99.90
66128;DHT22;52925;52.436;-1.952;2024-01-25T06:12:29;9.40;99.90
66128;DHT22;52925;52.436;-1.952;2024-01-25T06:13:49;9.30;99.90
66128;DHT22;52925;52.436;-1.952;2024-01-25T06:15:09;9.30;99.90
66128;DHT22;52925;52.436;-1.952;2024-01-25T06:16:30;9.40;99.90
66128;DHT22;52925;52.436;-1.952;2024-01-25T06:17:51;9.30;99.90
66128;DHT22;52925;52.436;-1.952;2024-01-25T06:19:12;9.40;99.90
66128;DHT22;52925;52.436;-1.952;2024-01-25T06:20:32;9.40;99.90
66128;DHT22;52925;52.436;-1.952;2024-01-25T06:21:53;9.30;99.90
66128;DHT22;52925;52.436;-1.952;2024-01-25T06:23:13;9.30;99.90
66128;DHT22;52925;52.436;-1.952;2024-01-25T06:24:33;9.30;99.90
66128;DHT22;52925;52.436;-1.952;2024-01-25T06:25:54;9.40;99.90
66128;DHT22;52925;52.436;-1.952;2024-01-25T06:27:14;9.30;99.90
66128;DHT22;52925;52.436;-1.952;2024-01-25T06:28:35;9.30;99.90
66128;DHT22;52925;52.436;-1.952;2024-01-25T06:29:54;9.30;99.90
66128;DHT22;52925;52.436;-1.952;2024-01-25T06:31:15;9.30;99.90
66128;DHT22;52925;52.436;-1.952;2024-01-25T06:32:35;9.30;99.90
66128;DHT22;52925;52.436;-1.952;2024-01-25T06:33:58;9.30;99.90
66128;DHT22;52925;52.436;-1.952;2024-01-25T06:35:18;9.30;99.90
66128;DHT22;52925;52.436;-1.952;2024-01-25T06:36:39;9.30;99.90
66128;DHT22;52925;52.436;-1.952;2024-01-25T06:37:59;9.30;99.90
66128;DHT22;52925;52.436;-1.952;2024-01-25T06:39:20;9.30;99.90
66128;DHT22;52925;52.436;-1.952;2024-01-25T06:40:40;9.30;99.90
66128;DHT22;52925;52.436;-1.952;2024-01-25T06:42:00;9.30;99.90
66128;DHT22;52925;52.436;-1.952;2024-01-25T06:43:20;9.30;99.90
66128;DHT22;52925;52.436;-1.952;2024-01-25T06:44:41;9.30;99.90
66128;DHT22;52925;52.436;-1.952;2024-01-25T06:46:01;9.30;99.90
66128;DHT22;52925;52.436;-1.952;2024-01-25T06:47:22;9.30;99.90
66128;DHT22;52925;52.436;-1.952;2024-01-25T06:48:41;9.30;99.90
66128;DHT22;52925;52.436;-1.952;2024-01-25T06:50:04;9.30;99.90
66128;DHT22;52925;52.436;-1.952;2024-01-25T06:51:24;9.30;99.90
66128;DHT22;52925;52.436;-1.952;2024-01-25T06:52:45;9.40;99.90
66128;DHT22;52925;52.436;-1.952;2024-01-25T06:54:05;9.40;99.90
66128;DHT22;52925;52.436;-1.952;2024-01-25T06:55:26;9.40;99.90
66128;DHT22;52925;52.436;-1.952;2024-01-25T06:56:46;9.40;99.90
66128;DHT22;52925;52.436;-1.952;2024-01-25T06:58:07;9.30;99.90
66128;DHT22;52925;52.436;-1.952;2024-01-25T06:59:26;9.40;99.90
66128;DHT22;52925;52.436;-1.952;2024-01-25T07:00:47;9.40;99.90
66128;DHT22;52925;52.436;-1.952;2024-01-25T07:02:07;9.40;99.90
66128;DHT22;52925;52.436;-1.952;2024-01-25T07:03:28;9.40;99.90
66128;DHT22;52925;52.436;-1.952;2024-01-25T07:04:48;9.40;99.90
66128;DHT22;52925;52.436;-1.952;2024-01-25T07:06:14;9.40;99.90
66128;DHT22;52925;52.436;-1.952;2024-01-25T07:07:34;9.40;99.90
66128;DHT22;52925;52.436;-1.952;2024-01-25T07:08:55;9.40;99.90
66128;DHT22;52925;52.436;-1.952;2024-01-25T07:10:15;9.40;99.90
66128;DHT22;52925;52.436;-1.952;2024-01-25T07:11:36;9.40;99.90
66128;DHT22;52925;52.436;-1.952;2024-01-25T07:12:56;9.50;99.90
66128;DHT22;52925;52.436;-1.952;2024-01-25T07:14:16;9.40;99.90
66128;DHT22;52925;52.436;-1.952;2024-01-25T07:15:36;9.50;99.90
66128;DHT22;52925;52.436;-1.952;2024-01-25T07:16:58;9.50;99.90
66128;DHT22;52925;52.436;-1.952;2024-01-25T16:39:12;10.10;99.90
66128;DHT22;52925;52.436;-1.952;2024-01-25T16:40:33;10.20;99.90
66128;DHT22;52925;52.436;-1.952;2024-01-25T16:41:53;10.20;99.90
66128;DHT22;52925;52.436;-1.952;2024-01-25T16:43:14;10.20;99.90
66128;DHT22;52925;52.436;-1.952;2024-01-25T16:44:34;10.30;99.90
66128;DHT22;52925;52.436;-1.952;2024-01-25T16:45:55;10.30;99.90
66128;DHT22;52925;52.436;-1.952;2024-01-25T16:47:15;10.30;99.90
66128;DHT22;52925;52.436;-1.952;2024-01-25T16:48:36;10.30;99.90
66128;DHT22;52925;52.436;-1.952;2024-01-25T16:49:56;10.40;99.90
66128;DHT22;52925;52.436;-1.952;2024-01-25T16:51:17;10.40;99.90
66128;DHT22;52925;52.436;-1.952;2024-01-25T16:52:37;10.40;99.90
66128;DHT22;52925;52.436;-1.952;2024-01-25T16:53:57;10.40;99.90
66128;DHT22;52925;52.436;-1.952;2024-01-25T16:55:19;10.40;99.90
66128;DHT22;52925;52.436;-1.952;2024-01-25T16:56:39;10.40;99.90
66128;DHT22;52925;52.436;-1.952;2024-01-25T16:57:59;10.40;99.90
66128;DHT22;52925;52.436;-1.952;2024-01-25T16:59:23;10.40;99.90
66128;DHT22;52925;52.436;-1.952;2024-01-25T17:00:43;10.50;99.90
66128;DHT22;52925;52.436;-1.952;2024-01-25T17:02:04;10.50;99.90
66128;DHT22;52925;52.436;-1.952;2024-01-25T17:03:24;10.50;99.90
66128;DHT22;52925;52.436;-1.952;2024-01-25T17:04:45;10.50;99.90
66128;DHT22;52925;52.436;-1.952;2024-01-25T17:06:05;10.50;99.90
66128;DHT22;52925;52.436;-1.952;2024-01-25T17:07:27;10.40;99.90
66128;DHT22;52925;52.436;-1.952;2024-01-25T17:08:47;10.50;99.90
66128;DHT22;52925;52.436;-1.952;2024-01-25T17:10:08;10.40;99.90
66128;DHT22;52925;52.436;-1.952;2024-01-25T17:11:30;10.50;99.90
66128;DHT22;52925;52.436;-1.952;2024-01-25T17:12:52;10.50;99.90
66128;DHT22;52925;52.436;-1.952;2024-01-25T17:14:12;10.50;99.90
66128;DHT22;52925;52.436;-1.952;2024-01-25T17:15:34;10.50;99.90
66128;DHT22;52925;52.436;-1.952;2024-01-25T17:16:54;10.50;99.90
66128;DHT22;52925;52.436;-1.952;2024-01-25T17:18:14;10.50;99.90
66128;DHT22;52925;52.436;-1.952;2024-01-25T17:19:34;10.60;99.90
66128;DHT22;52925;52.436;-1.952;2024-01-25T17:20:55;10.50;99.90
66128;DHT22;52925;52.436;-1.952;2024-01-25T17:22:15;10.60;99.90
66128;DHT22;52925;52.436;-1.952;2024-01-25T17:23:36;10.60;99.90
66128;DHT22;52925;52.436;-1.952;2024-01-25T17:24:56;10.60;99.90
66128;DHT22;52925;52.436;-1.952;2024-01-25T17:26:16;10.60;99.90
66128;DHT22;52925;52.436;-1.952;2024-01-25T17:27:38;10.60;99.90
66128;DHT22;52925;52.436;-1.952;2024-01-25T17:28:59;10.60;99.90
66128;DHT22;52925;52.436;-1.952;2024-01-25T17:30:19;10.60;99.90
66128;DHT22;52925;52.436;-1.952;2024-01-25T17:31:41;10.60;99.90
66128;DHT22;52925;52.436;-1.952;2024-01-25T17:33:00;10.60;99.90
66128;DHT22;52925;52.436;-1.952;2024-01-25T17:34:21;10.60;99.90
66128;DHT22;52925;52.436;-1.952;2024-01-25T17:35:42;10.60;99.90
66128;DHT22;52925;52.436;-1.952;2024-01-25T17:37:07;10.60;99.90
66128;DHT22;52925;52.436;-1.952;2024-01-25T17:38:27;10.60;99.90
66128;DHT22;52925;52.436;-1.952;2024-01-25T17:39:48;10.60;99.90
66128;DHT22;52925;52.436;-1.952;2024-01-25T17:41:08;10.60;99.90
66128;DHT22;52925;52.436;-1.952;2024-01-25T17:42:29;10.60;99.90
66128;DHT22;52925;52.436;-1.952;2024-01-25T17:43:50;10.60;99.90
66128;DHT22;52925;52.436;-1.952;2024-01-25T17:45:12;10.60;99.90
66128;DHT22;52925;52.436;-1.952;2024-01-25T17:46:31;10.60;99.90
66128;DHT22;52925;52.436;-1.952;2024-01-25T17:47:52;10.60;99.90
66128;DHT22;52925;52.436;-1.952;2024-01-25T17:49:13;10.60;99.90
66128;DHT22;52925;52.436;-1.952;2024-01-25T17:50:34;10.60;99.90
66128;DHT22;52925;52.436;-1.952;2024-01-25T17:51:54;10.60;99.90
66128;DHT22;52925;52.436;-1.952;2024-01-25T17:53:15;10.60;99.90
66128;DHT22;52925;52.436;-1.952;2024-01-25T17:54:34;10.60;99.90
66128;DHT22;52925;52.436;-1.952;2024-01-25T17:55:56;10.70;99.90
66128;DHT22;52925;52.436;-1.952;2024-01-25T17:57:16;10.60;99.90
66128;DHT22;52925;52.436;-1.952;2024-01-25T17:58:36;10.60;99.90
66128;DHT22;52925;52.436;-1.952;2024-01-25T17:59:57;10.60;99.90
66128;DHT22;52925;52.436;-1.952;2024-01-25T18:01:19;10.60;99.90
66128;DHT22;52925;52.436;-1.952;2024-01-25T18:02:39;10.60;99.90
66128;DHT22;52925;52.436;-1.952;2024-01-25T18:03:59;10.60;99.90
66128;DHT22;52925;52.436;-1.952;2024-01-25T18:05:19;10.60;99.90
66128;DHT22;52925;52.436;-1.952;2024-01-25T18:06:40;10.60;99.90
66128;DHT22;52925;52.436;-1.952;2024-01-25T18:08:00;10.70;99.90
66128;DHT22;52925;52.436;-1.952;2024-01-25T18:09:21;10.60;99.90
66128;DHT22;52925;52.436;-1.952;2024-01-25T18:10:43;10.70;99.90
66128;DHT22;52925;52.436;-1.952;2024-01-25T18:12:04;10.70;99.90
66128;DHT22;52925;52.436;-1.952;2024-01-25T18:13:24;10.70;99.90
66128;DHT22;52925;52.436;-1.952;2024-01-25T18:14:44;10.70;99.90
66128;DHT22;52925;52.436;-1.952;2024-01-25T18:16:07;10.70;99.90
66128;DHT22;52925;52.436;-1.952;2024-01-25T18:17:27;10.70;99.90
66128;DHT22;52925;52.436;-1.952;2024-01-25T18:18:47;10.70;99.90
66128;DHT22;52925;52.436;-1.952;2024-01-25T18:20:08;10.70;99.90
66128;DHT22;52925;52.436;-1.952;2024-01-25T18:21:29;10.70;99.90
66128;DHT22;52925;52.436;-1.952;2024-01-25T18:22:49;10.70;99.90
66128;DHT22;52925;52.436;-1.952;2024-01-25T18:24:10;10.70;99.90
66128;DHT22;52925;52.436;-1.952;2024-01-25T18:25:30;10.70;99.90
66128;DHT22;52925;52.436;-1.952;2024-01-25T18:26:51;10.70;99.90
66128;DHT22;52925;52.436;-1.952;2024-01-25T18:28:11;10.70;99.90
66128;DHT22;52925;52.436;-1.952;2024-01-25T18:29:33;10.70;99.90
66128;DHT22;52925;52.436;-1.952;2024-01-25T18:30:53;10.70;99.90
66128;DHT22;52925;52.436;-1.952;2024-01-25T18:32:17;10.70;99.90
66128;DHT22;52925;52.436;-1.952;2024-01-25T18:33:37;10.70;99.90
66128;DHT22;52925;52.436;-1.952;2024-01-25T18:34:58;10.70;99.90
66128;DHT22;52925;52.436;-1.952;2024-01-25T18:36:18;10.70;99.90
66128;DHT22;52925;52.436;-1.952;2024-01-25T18:37:39;10.70;99.90
66128;DHT22;52925;52.436;-1.952;2024-01-25T18:38:58;10.70;99.90
66128;DHT22;52925;52.436;-1.952;2024-01-25T18:40:19;10.70;99.90
66128;DHT22;52925;52.436;-1.952;2024-01-25T18:41:39;10.70;99.90
66128;DHT22;52925;52.436;-1.952;2024-01-25T18:43:00;10.70;99.90
66128;DHT22;52925;52.436;-1.952;2024-01-25T18:44:19;10.70;99.90
66128;DHT22;52925;52.436;-1.952;2024-01-25T18:45:41;10.70;99.90
66128;DHT22;52925;52.436;-1.952;2024-01-25T18:47:01;10.70;99.90
66128;DHT22;52925;52.436;-1.952;2024-01-25T18:48:24;10.70;99.90
66128;DHT22;52925;52.436;-1.952;2024-01-25T18:49:44;10.70;99.90
66128;DHT22;52925;52.436;-1.952;2024-01-25T18:51:05;10.70;99.90
66128;DHT22;52925;52.436;-1.952;2024-01-25T18:52:26;10.70;99.90
66128;DHT22;52925;52.436;-1.952;2024-01-25T18:53:47;10.70;99.90
66128;DHT22;52925;52.436;-1.952;2024-01-25T18:55:08;10.70;99.90
66128;DHT22;52925;52.436;-1.952;2024-01-25T18:56:30;10.70;99.90
66128;DHT22;52925;52.436;-1.952;2024-01-25T18:57:50;10.70;99.90
66128;DHT22;52925;52.436;-1.952;2024-01-25T18:59:12;10.70;99.90
66128;DHT22;52925;52.436;-1.952;2024-01-25T19:00:32;10.70;99.90
66128;DHT22;52925;52.436;-1.952;2024-01-25T19:01:53;10.70;99.90
66128;DHT22;52925;52.436;-1.952;2024-01-25T19:03:13;10.70;99.90
66128;DHT22;52925;52.436;-1.952;2024-01-25T19:04:37;10.70;99.90
66128;DHT22;52925;52.436;-1.952;2024-01-25T19:05:58;10.70;99.90
66128;DHT22;52925;52.436;-1.952;2024-01-25T19:07:19;10.70;99.90
66128;DHT22;52925;52.436;-1.952;2024-01-25T19:08:39;10.80;99.90
66128;DHT22;52925;52.436;-1.952;2024-01-25T19:10:00;10.80;99.90
66128;DHT22;52925;52.436;-1.952;2024-01-25T19:11:20;10.80;99.90
66128;DHT22;52925;52.436;-1.952;2024-01-25T19:12:40;10.80;99.90
66128;DHT22;52925;52.436;-1.952;2024-01-25T19:14:00;10.70;99.90
66128;DHT22;52925;52.436;-1.952;2024-01-25T19:15:21;10.80;99.90
66128;DHT22;52925;52.436;-1.952;2024-01-25T19:16:41;10.80;99.90
66128;DHT22;52925;52.436;-1.952;2024-01-25T19:18:03;10.80;99.90
66128;DHT22;52925;52.436;-1.952;2024-01-25T19:19:23;10.80;99.90
66128;DHT22;52925;52.436;-1.952;2024-01-25T19:20:45;10.80;99.90
66128;DHT22;52925;52.436;-1.952;2024-01-25T19:22:05;10.80;99.90
66128;DHT22;52925;52.436;-1.952;2024-01-25T19:23:27;10.80;99.90
66128;DHT22;52925;52.436;-1.952;2024-01-25T19:24:47;10.80;99.90
66128;DHT22;52925;52.436;-1.952;2024-01-25T19:26:07;10.80;99.90
66128;DHT22;52925;52.436;-1.952;2024-01-25T19:27:27;10.80;99.90
66128;DHT22;52925;52.436;-1.952;2024-01-25T19:28:49;10.80;99.90
66128;DHT22;52925;52.436;-1.952;2024-01-25T19:30:09;10.80;99.90
66128;DHT22;52925;52.436;-1.952;2024-01-25T19:31:31;10.80;99.90
66128;DHT22;52925;52.436;-1.952;2024-01-25T19:32:51;10.80;99.90
66128;DHT22;52925;52.436;-1.952;2024-01-25T19:34:12;10.80;99.90
66128;DHT22;52925;52.436;-1.952;2024-01-25T19:35:32;10.80;99.90
66128;DHT22;52925;52.436;-1.952;2024-01-25T19:36:54;10.80;99.90
66128;DHT22;52925;52.436;-1.952;2024-01-25T19:38:14;10.80;99.90
66128;DHT22;52925;52.436;-1.952;2024-01-25T19:39:35;10.80;99.90
66128;DHT22;52925;52.436;-1.952;2024-01-25T19:40:54;10.80;99.90
66128;DHT22;52925;52.436;-1.952;2024-01-25T19:42:15;10.80;99.90
66128;DHT22;52925;52.436;-1.952;2024-01-25T19:43:35;10.80;99.90
66128;DHT22;52925;52.436;-1.952;2024-01-25T19:44:56;10.80;99.90
66128;DHT22;52925;52.436;-1.952;2024-01-25T19:46:15;10.80;99.90
66128;DHT22;52925;52.436;-1.952;2024-01-25T19:47:36;10.80;99.90
66128;DHT22;52925;52.436;-1.952;2024-01-25T19:48:56;10.80;99.90
66128;DHT22;52925;52.436;-1.952;2024-01-25T19:50:17;10.80;99.90
66128;DHT22;52925;52.436;-1.952;2024-01-25T19:51:36;10.90;99.90
66128;DHT22;52925;52.436;-1.952;2024-01-25T19:52:59;10.90;99.90
66128;DHT22;52925;52.436;-1.952;2024-01-25T19:54:18;10.90;99.90
66128;DHT22;52925;52.436;-1.952;2024-01-25T19:55:39;10.90;99.90
66128;DHT22;52925;52.436;-1.952;2024-01-25T19:56:59;10.90;99.90
66128;DHT22;52925;52.436;-1.952;2024-01-25T19:58:21;10.90;99.90
66128;DHT22;52925;52.436;-1.952;2024-01-25T19:59:43;10.90;99.90
66128;DHT22;52925;52.436;-1.952;2024-01-25T20:01:05;10.90;99.90
66128;DHT22;52925;52.436;-1.952;2024-01-25T20:02:25;10.90;99.90
66128;DHT22;52925;52.436;-1.952;2024-01-25T20:03:48;10.90;99.90
66128;DHT22;52925;52.436;-1.952;2024-01-25T20:05:09;10.90;99.90
66128;DHT22;52925;52.436;-1.952;2024-01-25T20:06:31;10.90;99.90
66128;DHT22;52925;52.436;-1.952;2024-01-25T20:07:54;10.90;99.90
66128;DHT22;52925;52.436;-1.952;2024-01-25T20:09:17;10.80;99.90
66128;DHT22;52925;52.436;-1.952;2024-01-25T20:10:36;10.90;99.90
66128;DHT22;52925;52.436;-1.952;2024-01-25T20:11:57;10.90;99.90
66128;DHT22;52925;52.436;-1.952;2024-01-25T20:13:17;10.90;99.90
66128;DHT22;52925;52.436;-1.952;2024-01-25T20:14:38;10.90;99.90
66128;DHT22;52925;52.436;-1.952;2024-01-25T20:15:58;10.90;99.90
66128;DHT22;52925;52.436;-1.952;2024-01-25T20:17:18;10.90;99.90
66128;DHT22;52925;52.436;-1.952;2024-01-25T20:18:39;10.90;99.90
66128;DHT22;52925;52.436;-1.952;2024-01-25T20:20:00;10.90;99.90
66128;DHT22;52925;52.436;-1.952;2024-01-25T20:21:19;10.90;99.90
66128;DHT22;52925;52.436;-1.952;2024-01-25T20:22:40;10.90;99.90
66128;DHT22;52925;52.436;-1.952;2024-01-25T20:24:00;10.90;99.90
66128;DHT22;52925;52.436;-1.952;2024-01-25T20:25:23;10.90;99.90
66128;DHT22;52925;52.436;-1.952;2024-01-25T20:26:42;10.90;99.90
66128;DHT22;52925;52.436;-1.952;2024-01-25T20:28:04;10.90;99.90
66128;DHT22;52925;52.436;-1.952;2024-01-25T20:29:25;11.00;99.90
66128;DHT22;52925;52.436;-1.952;2024-01-25T20:30:45;10.90;99.90
66128;DHT22;52925;52.436;-1.952;2024-01-25T20:32:06;11.00;99.90
66128;DHT22;52925;52.436;-1.952;2024-01-25T20:33:27;10.90;99.90
66128;DHT22;52925;52.436;-1.952;2024-01-25T20:34:47;10.90;99.90
66128;DHT22;52925;52.436;-1.952;2024-01-25T20:36:08;10.90;99.90
66128;DHT22;52925;52.436;-1.952;2024-01-25T20:37:28;10.90;99.90
66128;DHT22;52925;52.436;-1.952;2024-01-25T20:38:48;10.90;99.90
66128;DHT22;52925;52.436;-1.952;2024-01-25T20:40:09;10.90;99.90
66128;DHT22;52925;52.436;-1.952;2024-01-25T20:41:31;11.00;99.90
66128;DHT22;52925;52.436;-1.952;2024-01-25T20:42:51;11.00;99.90
66128;DHT22;52925;52.436;-1.952;2024-01-25T20:44:11;10.90;99.90
66128;DHT22;52925;52.436;-1.952;2024-01-25T20:45:31;11.00;99.90
66128;DHT22;52925;52.436;-1.952;2024-01-25T20:46:53;11.00;99.90
66128;DHT22;52925;52.436;-1.952;2024-01-25T20:48:13;11.00;99.90
66128;DHT22;52925;52.436;-1.952;2024-01-25T20:49:34;11.00;99.90
66128;DHT22;52925;52.436;-1.952;2024-01-25T20:50:54;11.00;99.90
66128;DHT22;52925;52.436;-1.952;2024-01-25T20:52:15;11.00;99.90
66128;DHT22;52925;52.436;-1.952;2024-01-25T20:53:35;11.00;99.90
66128;DHT22;52925;52.436;-1.952;2024-01-25T20:54:56;11.00;99.90
66128;DHT22;52925;52.436;-1.952;2024-01-25T20:56:15;11.00;99.90
66128;DHT22;52925;52.436;-1.952;2024-01-25T20:57:37;11.00;99.90
66128;DHT22;52925;52.436;-1.952;2024-01-25T20:58:57;11.00;99.90
66128;DHT22;52925;52.436;-1.952;2024-01-25T21:00:18;11.00;99.90
66128;DHT22;52925;52.436;-1.952;2024-01-25T21:01:40;11.00;99.90
66128;DHT22;52925;52.436;-1.952;2024-01-25T21:03:01;11.00;99.90
66128;DHT22;52925;52.436;-1.952;2024-01-25T21:04:21;11.00;99.90
66128;DHT22;52925;52.436;-1.952;2024-01-25T21:05:43;11.00;99.90
66128;DHT22;52925;52.436;-1.952;2024-01-25T21:07:03;11.00;99.90
66128;DHT22;52925;52.436;-1.952;2024-01-25T21:08:24;11.00;99.90
66128;DHT22;52925;52.436;-1.952;2024-01-25T21:09:45;11.00;99.90
66128;DHT22;52925;52.436;-1.952;2024-01-25T21:11:10;11.00;99.90
66128;DHT22;52925;52.436;-1.952;2024-01-25T21:12:31;11.00;99.90
66128;DHT22;52925;52.436;-1.952;2024-01-25T21:13:54;11.00;99.90
66128;DHT22;52925;52.436;-1.952;2024-01-25T21:15:15;11.00;99.90
66128;DHT22;52925;52.436;-1.952;2024-01-25T21:16:36;11.00;99.90
66128;DHT22;52925;52.436;-1.952;2024-01-25T21:17:56;11.00;99.90
66128;DHT22;52925;52.436;-1.952;2024-01-25T21:19:16;11.00;99.90
66128;DHT22;52925;52.436;-1.952;2024-01-25T21:20:36;11.10;99.90
66128;DHT22;52925;52.436;-1.952;2024-01-25T21:21:57;11.00;99.90
66128;DHT22;52925;52.436;-1.952;2024-01-25T21:23:18;11.00;99.90
66128;DHT22;52925;52.436;-1.952;2024-01-25T21:24:39;11.10;99.90
66128;DHT22;52925;52.436;-1.952;2024-01-25T21:25:59;11.10;99.90
66128;DHT22;52925;52.436;-1.952;2024-01-25T21:27:20;11.10;99.90
66128;DHT22;52925;52.436;-1.952;2024-01-25T21:28:40;11.10;99.90
66128;DHT22;52925;52.436;-1.952;2024-01-25T21:30:06;11.10;99.90
66128;DHT22;52925;52.436;-1.952;2024-01-25T21:31:26;11.10;99.90
66128;DHT22;52925;52.436;-1.952;2024-01-25T21:32:47;11.10;99.90
66128;DHT22;52925;52.436;-1.952;2024-01-25T21:34:07;11.00;99.90
66128;DHT22;52925;52.436;-1.952;2024-01-25T21:35:27;11.10;99.90
66128;DHT22;52925;52.436;-1.952;2024-01-25T21:36:47;11.00;99.90
66128;DHT22;52925;52.436;-1.952;2024-01-25T21:38:09;11.00;99.90
66128;DHT22;52925;52.436;-1.952;2024-01-25T21:39:28;11.00;99.90
66128;DHT22;52925;52.436;-1.952;2024-01-25T21:40:49;11.10;99.90
66128;DHT22;52925;52.436;-1.952;2024-01-25T21:42:09;11.00;99.90
66128;DHT22;52925;52.436;-1.952;2024-01-25T21:43:30;11.00;99.90
66128;DHT22;52925;52.436;-1.952;2024-01-25T21:44:50;11.10;99.90
66128;DHT22;52925;52.436;-1.952;2024-01-25T21:46:12;11.00;99.90
66128;DHT22;52925;52.436;-1.952;2024-01-25T21:47:32;11.00;99.90
66128;DHT22;52925;52.436;-1.952;2024-01-25T21:48:53;11.00;99.90
66128;DHT22;52925;52.436;-1.952;2024-01-25T21:50:13;11.10;99.90
66128;DHT22;52925;52.436;-1.952;2024-01-25T21:51:41;11.10;99.90
66128;DHT22;52925;52.436;-1.952;2024-01-25T21:53:01;11.10;99.90
66128;DHT22;52925;52.436;-1.952;2024-01-25T21:54:22;11.10;99.90
66128;DHT22;52925;52.436;-1.952;2024-01-25T21:55:41;11.10;99.90
66128;DHT22;52925;52.436;-1.952;2024-01-25T21:57:03;11.10;99.90
66128;DHT22;52925;52.436;-1.952;2024-01-25T21:58:23;11.10;99.90
66128;DHT22;52925;52.436;-1.952;2024-01-25T21:59:44;11.10;99.90
66128;DHT22;52925;52.436;-1.952;2024-01-25T22:01:03;11.10;99.90
66128;DHT22;52925;52.436;-1.952;2024-01-25T22:02:25;11.10;99.90
66128;DHT22;52925;52.436;-1.952;2024-01-25T22:03:45;11.10;99.90
66128;DHT22;52925;52.436;-1.952;2024-01-25T22:05:07;11.10;99.90
66128;DHT22;52925;52.436;-1.952;2024-01-25T22:06:27;11.10;99.90
66128;DHT22;52925;52.436;-1.952;2024-01-25T22:07:47;11.10;99.90
66128;DHT22;52925;52.436;-1.952;2024-01-25T22:09:07;11.10;99.90
66128;DHT22;52925;52.436;-1.952;2024-01-25T22:10:28;11.10;99.90
66128;DHT22;52925;52.436;-1.952;2024-01-25T22:11:48;11.10;99.90
66128;DHT22;52925;52.436;-1.952;2024-01-25T22:13:09;11.10;99.90
66128;DHT22;52925;52.436;-1.952;2024-01-25T22:14:29;11.10;99.90
66128;DHT22;52925;52.436;-1.952;2024-01-25T22:15:50;11.10;99.90
66128;DHT22;52925;52.436;-1.952;2024-01-25T22:17:12;11.10;99.90
66128;DHT22;52925;52.436;-1.952;2024-01-25T22:18:34;11.10;99.90
66128;DHT22;52925;52.436;-1.952;2024-01-25T22:19:54;11.10;99.90
66128;DHT22;52925;52.436;-1.952;2024-01-25T22:21:16;11.10;99.90
66128;DHT22;52925;52.436;-1.952;2024-01-25T22:22:36;11.10;99.90
66128;DHT22;52925;52.436;-1.952;2024-01-25T22:23:57;11.10;99.90
66128;DHT22;52925;52.436;-1.952;2024-01-25T22:25:17;11.10;99.90
66128;DHT22;52925;52.436;-1.952;2024-01-25T22:26:38;11.10;99.90
66128;DHT22;52925;52.436;-1.952;2024-01-25T22:27:58;11.10;99.90
66128;DHT22;52925;52.436;-1.952;2024-01-25T22:29:19;11.10;99.90
66128;DHT22;52925;52.436;-1.952;2024-01-25T22:30:39;11.10;99.90
66128;DHT22;52925;52.436;-1.952;2024-01-25T22:32:00;11.10;99.90
66128;DHT22;52925;52.436;-1.952;2024-01-25T22:33:20;11.10;99.90
66128;DHT22;52925;52.436;-1.952;2024-01-25T22:34:42;11.10;99.90
66128;DHT22;52925;52.436;-1.952;2024-01-25T22:36:02;11.10;99.90
66128;DHT22;52925;52.436;-1.952;2024-01-25T22:37:24;11.10;99.90
66128;DHT22;52925;52.436;-1.952;2024-01-25T22:38:44;11.10;99.90
66128;DHT22;52925;52.436;-1.952;2024-01-25T22:40:06;11.20;99.90
66128;DHT22;52925;52.436;-1.952;2024-01-25T22:41:26;11.20;99.90
66128;DHT22;52925;52.436;-1.952;2024-01-25T22:42:47;11.20;99.90
66128;DHT22;52925;52.436;-1.952;2024-01-25T22:44:07;11.10;99.90
66128;DHT22;52925;52.436;-1.952;2024-01-25T22:45:28;11.20;99.90
66128;DHT22;52925;52.436;-1.952;2024-01-25T22:46:48;11.20;99.90
66128;DHT22;52925;52.436;-1.952;2024-01-25T22:48:09;11.20;99.90
66128;DHT22;52925;52.436;-1.952;2024-01-25T22:49:29;11.20;99.90
66128;DHT22;52925;52.436;-1.952;2024-01-25T22:50:51;11.10;99.90
66128;DHT22;52925;52.436;-1.952;2024-01-25T22:52:11;11.20;99.90
66128;DHT22;52925;52.436;-1.952;2024-01-25T22:53:32;11.10;99.90
66128;DHT22;52925;52.436;-1.952;2024-01-25T22:54:52;11.20;99.90
66128;DHT22;52925;52.436;-1.952;2024-01-25T22:56:13;11.10;99.90
66128;DHT22;52925;52.436;-1.952;2024-01-25T22:57:33;11.10;99.90